sensor_id;sensor_type;location;lat;lon;timestamp;P1;durP1;ratioP1;P2;durP2;ratioP2
3924;SDS011;1977;52.274;10.518;2023-09-30T00:02:21;7.67;;;3.93;;
3924;SDS011;1977;52.274;10.518;2023-09-30T00:04:48;5.43;;;3.33;;
3924;SDS011;1977;52.274;10.518;2023-09-30T00:07:16;5.30;;;3.30;;
3924;SDS011;1977;52.274;10.518;2023-09-30T00:09:43;6.53;;;3.60;;
3924;SDS011;1977;52.274;10.518;2023-09-30T00:12:09;9.97;;;3.93;;
3924;SDS011;1977;52.274;10.518;2023-09-30T00:14:36;4.80;;;3.20;;
3924;SDS011;1977;52.274;10.518;2023-09-30T00:17:03;6.83;;;3.73;;
3924;SDS011;1977;52.274;10.518;2023-09-30T00:19:32;9.33;;;3.90;;
3924;SDS011;1977;52.274;10.518;2023-09-30T00:22:02;5.97;;;2.87;;
3924;SDS011;1977;52.274;10.518;2023-09-30T00:24:30;7.30;;;3.40;;
3924;SDS011;1977;52.274;10.518;2023-09-30T00:26:57;5.80;;;3.60;;
3924;SDS011;1977;52.274;10.518;2023-09-30T00:29:24;5.97;;;3.30;;
3924;SDS011;1977;52.274;10.518;2023-09-30T00:31:51;4.33;;;3.40;;
3924;SDS011;1977;52.274;10.518;2023-09-30T00:34:18;6.30;;;3.93;;
3924;SDS011;1977;52.274;10.518;2023-09-30T00:36:45;6.43;;;3.57;;
3924;SDS011;1977;52.274;10.518;2023-09-30T00:39:12;4.70;;;3.53;;
3924;SDS011;1977;52.274;10.518;2023-09-30T00:41:40;4.93;;;3.77;;
3924;SDS011;1977;52.274;10.518;2023-09-30T00:44:07;7.70;;;3.37;;
3924;SDS011;1977;52.274;10.518;2023-09-30T00:46:35;4.60;;;3.60;;
3924;SDS011;1977;52.274;10.518;2023-09-30T00:49:03;12.13;;;3.50;;
3924;SDS011;1977;52.274;10.518;2023-09-30T00:51:30;7.20;;;3.40;;
3924;SDS011;1977;52.274;10.518;2023-09-30T00:53:58;6.50;;;3.67;;
3924;SDS011;1977;52.274;10.518;2023-09-30T00:56:27;5.10;;;3.10;;
3924;SDS011;1977;52.274;10.518;2023-09-30T00:58:57;3.67;;;3.27;;
3924;SDS011;1977;52.274;10.518;2023-09-30T01:01:24;6.10;;;3.13;;
3924;SDS011;1977;52.274;10.518;2023-09-30T01:03:51;6.73;;;3.70;;
3924;SDS011;1977;52.274;10.518;2023-09-30T01:06:18;12.10;;;3.83;;
3924;SDS011;1977;52.274;10.518;2023-09-30T01:08:46;8.97;;;4.37;;
3924;SDS011;1977;52.274;10.518;2023-09-30T01:11:12;6.63;;;3.40;;
3924;SDS011;1977;52.274;10.518;2023-09-30T01:13:40;6.07;;;3.70;;
3924;SDS011;1977;52.274;10.518;2023-09-30T01:16:09;5.20;;;3.37;;
3924;SDS011;1977;52.274;10.518;2023-09-30T01:18:36;6.67;;;3.40;;
3924;SDS011;1977;52.274;10.518;2023-09-30T01:21:07;5.10;;;3.10;;
3924;SDS011;1977;52.274;10.518;2023-09-30T01:23:36;6.20;;;3.30;;
3924;SDS011;1977;52.274;10.518;2023-09-30T01:26:03;12.80;;;4.03;;
3924;SDS011;1977;52.274;10.518;2023-09-30T01:28:32;8.10;;;3.53;;
3924;SDS011;1977;52.274;10.518;2023-09-30T01:30:59;7.67;;;3.80;;
3924;SDS011;1977;52.274;10.518;2023-09-30T01:33:26;7.60;;;3.83;;
3924;SDS011;1977;52.274;10.518;2023-09-30T01:35:53;7.73;;;3.53;;
3924;SDS011;1977;52.274;10.518;2023-09-30T01:38:20;7.80;;;3.63;;
3924;SDS011;1977;52.274;10.518;2023-09-30T01:40:48;8.60;;;4.13;;
3924;SDS011;1977;52.274;10.518;2023-09-30T01:43:15;7.10;;;3.40;;
3924;SDS011;1977;52.274;10.518;2023-09-30T01:45:42;10.67;;;4.20;;
3924;SDS011;1977;52.274;10.518;2023-09-30T01:48:09;6.30;;;3.60;;
3924;SDS011;1977;52.274;10.518;2023-09-30T01:50:36;6.90;;;3.33;;
3924;SDS011;1977;52.274;10.518;2023-09-30T01:53:03;4.77;;;3.30;;
3924;SDS011;1977;52.274;10.518;2023-09-30T01:55:31;5.53;;;3.33;;
3924;SDS011;1977;52.274;10.518;2023-09-30T01:57:59;7.07;;;2.70;;
3924;SDS011;1977;52.274;10.518;2023-09-30T02:00:26;8.03;;;3.80;;
3924;SDS011;1977;52.274;10.518;2023-09-30T02:02:53;6.70;;;2.90;;
3924;SDS011;1977;52.274;10.518;2023-09-30T02:05:20;5.17;;;3.07;;
3924;SDS011;1977;52.274;10.518;2023-09-30T02:07:47;6.93;;;4.20;;
3924;SDS011;1977;52.274;10.518;2023-09-30T02:10:14;7.43;;;4.03;;
3924;SDS011;1977;52.274;10.518;2023-09-30T02:12:42;8.23;;;3.83;;
3924;SDS011;1977;52.274;10.518;2023-09-30T02:15:10;10.30;;;3.70;;
3924;SDS011;1977;52.274;10.518;2023-09-30T02:17:38;5.90;;;4.40;;
3924;SDS011;1977;52.274;10.518;2023-09-30T02:20:05;10.63;;;3.90;;
3924;SDS011;1977;52.274;10.518;2023-09-30T02:22:37;7.30;;;4.30;;
3924;SDS011;1977;52.274;10.518;2023-09-30T02:25:04;6.87;;;3.93;;
3924;SDS011;1977;52.274;10.518;2023-09-30T02:27:33;8.80;;;3.57;;
3924;SDS011;1977;52.274;10.518;2023-09-30T02:30:00;5.97;;;3.70;;
3924;SDS011;1977;52.274;10.518;2023-09-30T02:32:28;8.23;;;3.90;;
3924;SDS011;1977;52.274;10.518;2023-09-30T02:34:55;6.70;;;3.97;;
3924;SDS011;1977;52.274;10.518;2023-09-30T02:37:22;7.20;;;3.80;;
3924;SDS011;1977;52.274;10.518;2023-09-30T02:39:48;5.30;;;3.30;;
3924;SDS011;1977;52.274;10.518;2023-09-30T02:42:15;6.73;;;3.50;;
3924;SDS011;1977;52.274;10.518;2023-09-30T02:44:42;13.10;;;4.40;;
3924;SDS011;1977;52.274;10.518;2023-09-30T02:47:09;5.23;;;3.20;;
3924;SDS011;1977;52.274;10.518;2023-09-30T02:49:38;9.50;;;3.57;;
3924;SDS011;1977;52.274;10.518;2023-09-30T02:52:05;4.77;;;3.23;;
3924;SDS011;1977;52.274;10.518;2023-09-30T02:54:31;7.07;;;3.20;;
3924;SDS011;1977;52.274;10.518;2023-09-30T02:56:58;6.30;;;4.47;;
3924;SDS011;1977;52.274;10.518;2023-09-30T02:59:25;8.20;;;3.50;;
3924;SDS011;1977;52.274;10.518;2023-09-30T03:01:52;10.03;;;4.43;;
3924;SDS011;1977;52.274;10.518;2023-09-30T03:04:19;8.87;;;3.57;;
3924;SDS011;1977;52.274;10.518;2023-09-30T03:06:47;6.97;;;3.07;;
3924;SDS011;1977;52.274;10.518;2023-09-30T03:09:14;6.07;;;3.60;;
3924;SDS011;1977;52.274;10.518;2023-09-30T03:11:41;6.83;;;4.10;;
3924;SDS011;1977;52.274;10.518;2023-09-30T03:14:09;6.07;;;4.03;;
3924;SDS011;1977;52.274;10.518;2023-09-30T03:16:36;8.57;;;3.20;;
3924;SDS011;1977;52.274;10.518;2023-09-30T03:19:04;8.43;;;3.50;;
3924;SDS011;1977;52.274;10.518;2023-09-30T03:21:33;8.60;;;4.00;;
3924;SDS011;1977;52.274;10.518;2023-09-30T03:24:02;6.47;;;3.63;;
3924;SDS011;1977;52.274;10.518;2023-09-30T03:26:29;8.80;;;3.33;;
3924;SDS011;1977;52.274;10.518;2023-09-30T03:28:56;7.43;;;3.30;;
3924;SDS011;1977;52.274;10.518;2023-09-30T03:31:24;6.93;;;3.70;;
3924;SDS011;1977;52.274;10.518;2023-09-30T03:33:50;7.33;;;3.77;;
3924;SDS011;1977;52.274;10.518;2023-09-30T03:36:19;8.13;;;4.40;;
3924;SDS011;1977;52.274;10.518;2023-09-30T03:38:45;7.53;;;3.60;;
3924;SDS011;1977;52.274;10.518;2023-09-30T03:41:13;7.13;;;4.20;;
3924;SDS011;1977;52.274;10.518;2023-09-30T03:43:40;8.00;;;3.73;;
3924;SDS011;1977;52.274;10.518;2023-09-30T03:46:07;5.50;;;3.43;;
3924;SDS011;1977;52.274;10.518;2023-09-30T03:48:34;9.47;;;4.03;;
3924;SDS011;1977;52.274;10.518;2023-09-30T03:51:07;4.90;;;3.73;;
3924;SDS011;1977;52.274;10.518;2023-09-30T03:53:37;5.87;;;4.23;;
3924;SDS011;1977;52.274;10.518;2023-09-30T03:56:04;5.83;;;3.50;;
3924;SDS011;1977;52.274;10.518;2023-09-30T03:58:33;8.63;;;4.40;;
3924;SDS011;1977;52.274;10.518;2023-09-30T04:01:00;6.40;;;4.10;;
3924;SDS011;1977;52.274;10.518;2023-09-30T04:03:27;7.07;;;3.83;;
3924;SDS011;1977;52.274;10.518;2023-09-30T04:05:54;11.63;;;4.63;;
3924;SDS011;1977;52.274;10.518;2023-09-30T04:08:21;5.87;;;3.70;;
3924;SDS011;1977;52.274;10.518;2023-09-30T04:10:48;6.30;;;3.77;;
3924;SDS011;1977;52.274;10.518;2023-09-30T04:13:15;7.30;;;3.83;;
3924;SDS011;1977;52.274;10.518;2023-09-30T04:15:43;6.70;;;3.90;;
3924;SDS011;1977;52.274;10.518;2023-09-30T04:18:12;6.07;;;3.40;;
3924;SDS011;1977;52.274;10.518;2023-09-30T04:20:39;6.87;;;3.57;;
3924;SDS011;1977;52.274;10.518;2023-09-30T04:23:06;4.80;;;3.87;;
3924;SDS011;1977;52.274;10.518;2023-09-30T04:25:35;9.67;;;4.43;;
3924;SDS011;1977;52.274;10.518;2023-09-30T04:28:02;7.37;;;4.70;;
3924;SDS011;1977;52.274;10.518;2023-09-30T04:30:29;8.13;;;5.03;;
3924;SDS011;1977;52.274;10.518;2023-09-30T04:32:59;5.43;;;3.50;;
3924;SDS011;1977;52.274;10.518;2023-09-30T04:35:26;9.13;;;5.27;;
3924;SDS011;1977;52.274;10.518;2023-09-30T04:37:55;10.10;;;4.60;;
3924;SDS011;1977;52.274;10.518;2023-09-30T04:40:22;9.87;;;4.97;;
3924;SDS011;1977;52.274;10.518;2023-09-30T04:42:49;5.83;;;3.90;;
3924;SDS011;1977;52.274;10.518;2023-09-30T04:45:15;8.03;;;3.93;;
3924;SDS011;1977;52.274;10.518;2023-09-30T04:47:45;7.43;;;4.03;;
3924;SDS011;1977;52.274;10.518;2023-09-30T04:50:15;6.27;;;4.47;;
3924;SDS011;1977;52.274;10.518;2023-09-30T04:52:42;7.27;;;4.87;;
3924;SDS011;1977;52.274;10.518;2023-09-30T04:55:10;7.70;;;4.20;;
3924;SDS011;1977;52.274;10.518;2023-09-30T04:57:40;7.93;;;4.50;;
3924;SDS011;1977;52.274;10.518;2023-09-30T05:00:10;11.83;;;5.50;;
3924;SDS011;1977;52.274;10.518;2023-09-30T05:02:38;8.97;;;3.57;;
3924;SDS011;1977;52.274;10.518;2023-09-30T05:05:05;11.30;;;4.50;;
3924;SDS011;1977;52.274;10.518;2023-09-30T05:07:34;12.10;;;4.53;;
3924;SDS011;1977;52.274;10.518;2023-09-30T05:10:01;5.80;;;4.00;;
3924;SDS011;1977;52.274;10.518;2023-09-30T05:12:30;11.60;;;4.77;;
3924;SDS011;1977;52.274;10.518;2023-09-30T05:14:58;10.50;;;4.70;;
3924;SDS011;1977;52.274;10.518;2023-09-30T05:17:25;5.77;;;4.20;;
3924;SDS011;1977;52.274;10.518;2023-09-30T05:19:51;6.20;;;4.50;;
3924;SDS011;1977;52.274;10.518;2023-09-30T05:22:19;8.80;;;4.10;;
3924;SDS011;1977;52.274;10.518;2023-09-30T05:24:50;7.93;;;4.30;;
3924;SDS011;1977;52.274;10.518;2023-09-30T05:27:17;12.30;;;4.40;;
3924;SDS011;1977;52.274;10.518;2023-09-30T05:29:44;7.43;;;4.40;;
3924;SDS011;1977;52.274;10.518;2023-09-30T05:32:10;10.57;;;4.40;;
3924;SDS011;1977;52.274;10.518;2023-09-30T05:34:38;12.13;;;4.90;;
3924;SDS011;1977;52.274;10.518;2023-09-30T05:37:05;7.93;;;4.40;;
3924;SDS011;1977;52.274;10.518;2023-09-30T05:39:32;12.37;;;4.20;;
3924;SDS011;1977;52.274;10.518;2023-09-30T05:42:00;8.80;;;4.83;;
3924;SDS011;1977;52.274;10.518;2023-09-30T05:44:28;7.63;;;4.40;;
3924;SDS011;1977;52.274;10.518;2023-09-30T05:46:55;9.97;;;4.47;;
3924;SDS011;1977;52.274;10.518;2023-09-30T05:49:22;8.57;;;4.50;;
3924;SDS011;1977;52.274;10.518;2023-09-30T05:51:49;10.17;;;4.47;;
3924;SDS011;1977;52.274;10.518;2023-09-30T05:54:16;5.27;;;3.93;;
3924;SDS011;1977;52.274;10.518;2023-09-30T05:56:43;7.47;;;4.57;;
3924;SDS011;1977;52.274;10.518;2023-09-30T05:59:11;5.60;;;4.17;;
3924;SDS011;1977;52.274;10.518;2023-09-30T06:01:38;6.23;;;4.37;;
3924;SDS011;1977;52.274;10.518;2023-09-30T06:04:06;8.30;;;4.27;;
3924;SDS011;1977;52.274;10.518;2023-09-30T06:06:32;4.90;;;3.53;;
3924;SDS011;1977;52.274;10.518;2023-09-30T06:08:59;13.17;;;4.80;;
3924;SDS011;1977;52.274;10.518;2023-09-30T06:11:26;7.33;;;4.90;;
3924;SDS011;1977;52.274;10.518;2023-09-30T06:13:53;7.77;;;4.37;;
3924;SDS011;1977;52.274;10.518;2023-09-30T06:16:21;10.17;;;5.30;;
3924;SDS011;1977;52.274;10.518;2023-09-30T06:18:51;8.73;;;4.23;;
3924;SDS011;1977;52.274;10.518;2023-09-30T06:21:18;5.33;;;4.03;;
3924;SDS011;1977;52.274;10.518;2023-09-30T06:23:46;5.50;;;3.93;;
3924;SDS011;1977;52.274;10.518;2023-09-30T06:26:13;7.13;;;4.10;;
3924;SDS011;1977;52.274;10.518;2023-09-30T06:28:41;12.37;;;4.73;;
3924;SDS011;1977;52.274;10.518;2023-09-30T06:31:08;7.60;;;3.93;;
3924;SDS011;1977;52.274;10.518;2023-09-30T06:33:37;14.57;;;4.57;;
3924;SDS011;1977;52.274;10.518;2023-09-30T06:36:08;7.40;;;5.03;;
3924;SDS011;1977;52.274;10.518;2023-09-30T06:38:35;9.13;;;4.50;;
3924;SDS011;1977;52.274;10.518;2023-09-30T06:41:03;5.10;;;3.97;;
3924;SDS011;1977;52.274;10.518;2023-09-30T06:43:30;8.27;;;4.10;;
3924;SDS011;1977;52.274;10.518;2023-09-30T06:45:57;8.10;;;4.53;;
3924;SDS011;1977;52.274;10.518;2023-09-30T06:48:24;4.30;;;3.90;;
3924;SDS011;1977;52.274;10.518;2023-09-30T06:50:52;5.87;;;3.93;;
3924;SDS011;1977;52.274;10.518;2023-09-30T06:53:19;5.23;;;3.87;;
3924;SDS011;1977;52.274;10.518;2023-09-30T06:55:48;6.53;;;3.70;;
3924;SDS011;1977;52.274;10.518;2023-09-30T06:58:16;10.87;;;3.80;;
3924;SDS011;1977;52.274;10.518;2023-09-30T07:00:46;6.43;;;3.90;;
3924;SDS011;1977;52.274;10.518;2023-09-30T07:03:13;7.00;;;4.50;;
3924;SDS011;1977;52.274;10.518;2023-09-30T07:05:40;5.10;;;4.00;;
3924;SDS011;1977;52.274;10.518;2023-09-30T07:08:09;6.17;;;3.50;;
3924;SDS011;1977;52.274;10.518;2023-09-30T07:10:35;8.53;;;3.63;;
3924;SDS011;1977;52.274;10.518;2023-09-30T07:13:02;8.37;;;4.23;;
3924;SDS011;1977;52.274;10.518;2023-09-30T07:15:31;4.73;;;3.63;;
3924;SDS011;1977;52.274;10.518;2023-09-30T07:17:58;5.93;;;3.03;;
3924;SDS011;1977;52.274;10.518;2023-09-30T07:20:25;6.23;;;3.87;;
3924;SDS011;1977;52.274;10.518;2023-09-30T07:22:51;8.50;;;4.50;;
3924;SDS011;1977;52.274;10.518;2023-09-30T07:25:20;8.37;;;3.90;;
3924;SDS011;1977;52.274;10.518;2023-09-30T07:27:46;5.03;;;3.10;;
3924;SDS011;1977;52.274;10.518;2023-09-30T07:30:13;7.77;;;3.80;;
3924;SDS011;1977;52.274;10.518;2023-09-30T07:32:41;8.70;;;4.30;;
3924;SDS011;1977;52.274;10.518;2023-09-30T07:35:08;7.60;;;3.50;;
3924;SDS011;1977;52.274;10.518;2023-09-30T07:37:35;6.50;;;3.87;;
3924;SDS011;1977;52.274;10.518;2023-09-30T07:40:02;10.00;;;3.80;;
3924;SDS011;1977;52.274;10.518;2023-09-30T07:42:31;7.90;;;3.20;;
3924;SDS011;1977;52.274;10.518;2023-09-30T07:44:58;7.97;;;3.23;;
3924;SDS011;1977;52.274;10.518;2023-09-30T07:47:25;5.80;;;3.40;;
3924;SDS011;1977;52.274;10.518;2023-09-30T07:49:52;4.33;;;3.40;;
3924;SDS011;1977;52.274;10.518;2023-09-30T07:52:18;9.10;;;4.03;;
3924;SDS011;1977;52.274;10.518;2023-09-30T07:54:45;6.40;;;3.87;;
3924;SDS011;1977;52.274;10.518;2023-09-30T07:57:12;7.90;;;3.80;;
3924;SDS011;1977;52.274;10.518;2023-09-30T07:59:41;6.10;;;3.70;;
3924;SDS011;1977;52.274;10.518;2023-09-30T08:02:08;5.57;;;4.47;;
3924;SDS011;1977;52.274;10.518;2023-09-30T08:04:34;6.70;;;3.23;;
3924;SDS011;1977;52.274;10.518;2023-09-30T08:07:01;5.73;;;3.30;;
3924;SDS011;1977;52.274;10.518;2023-09-30T08:09:28;6.17;;;4.50;;
3924;SDS011;1977;52.274;10.518;2023-09-30T08:11:55;10.90;;;3.90;;
3924;SDS011;1977;52.274;10.518;2023-09-30T08:14:22;7.83;;;3.37;;
3924;SDS011;1977;52.274;10.518;2023-09-30T08:16:50;5.80;;;3.40;;
3924;SDS011;1977;52.274;10.518;2023-09-30T08:19:17;6.13;;;3.43;;
3924;SDS011;1977;52.274;10.518;2023-09-30T08:21:45;4.17;;;3.57;;
3924;SDS011;1977;52.274;10.518;2023-09-30T08:24:12;7.43;;;3.80;;
3924;SDS011;1977;52.274;10.518;2023-09-30T08:26:39;6.30;;;2.60;;
3924;SDS011;1977;52.274;10.518;2023-09-30T08:29:06;8.03;;;3.43;;
3924;SDS011;1977;52.274;10.518;2023-09-30T08:31:33;4.03;;;3.17;;
3924;SDS011;1977;52.274;10.518;2023-09-30T08:34:01;5.90;;;3.27;;
3924;SDS011;1977;52.274;10.518;2023-09-30T08:36:29;4.30;;;2.80;;
3924;SDS011;1977;52.274;10.518;2023-09-30T08:38:56;3.50;;;2.60;;
3924;SDS011;1977;52.274;10.518;2023-09-30T08:41:24;11.23;;;3.23;;
3924;SDS011;1977;52.274;10.518;2023-09-30T08:43:59;5.63;;;2.90;;
3924;SDS011;1977;52.274;10.518;2023-09-30T08:46:28;5.70;;;2.53;;
3924;SDS011;1977;52.274;10.518;2023-09-30T08:48:57;3.67;;;2.60;;
3924;SDS011;1977;52.274;10.518;2023-09-30T08:51:26;4.90;;;2.53;;
3924;SDS011;1977;52.274;10.518;2023-09-30T08:53:55;7.27;;;3.00;;
3924;SDS011;1977;52.274;10.518;2023-09-30T08:56:24;8.90;;;3.30;;
3924;SDS011;1977;52.274;10.518;2023-09-30T08:58:53;9.13;;;3.07;;
3924;SDS011;1977;52.274;10.518;2023-09-30T09:01:22;6.73;;;2.73;;
3924;SDS011;1977;52.274;10.518;2023-09-30T09:03:50;4.90;;;3.37;;
3924;SDS011;1977;52.274;10.518;2023-09-30T09:06:17;7.80;;;3.30;;
3924;SDS011;1977;52.274;10.518;2023-09-30T09:08:46;9.23;;;2.87;;
3924;SDS011;1977;52.274;10.518;2023-09-30T09:11:13;6.07;;;3.63;;
3924;SDS011;1977;52.274;10.518;2023-09-30T09:13:47;4.73;;;2.80;;
3924;SDS011;1977;52.274;10.518;2023-09-30T09:16:16;8.37;;;3.00;;
3924;SDS011;1977;52.274;10.518;2023-09-30T09:18:44;10.70;;;3.50;;
3924;SDS011;1977;52.274;10.518;2023-09-30T09:21:13;6.90;;;3.37;;
3924;SDS011;1977;52.274;10.518;2023-09-30T09:23:41;18.77;;;5.90;;
3924;SDS011;1977;52.274;10.518;2023-09-30T09:26:11;6.60;;;2.90;;
3924;SDS011;1977;52.274;10.518;2023-09-30T09:28:39;6.30;;;3.23;;
3924;SDS011;1977;52.274;10.518;2023-09-30T09:31:18;5.40;;;2.67;;
3924;SDS011;1977;52.274;10.518;2023-09-30T09:33:47;7.33;;;3.70;;
3924;SDS011;1977;52.274;10.518;2023-09-30T09:36:14;8.47;;;2.70;;
3924;SDS011;1977;52.274;10.518;2023-09-30T09:38:44;8.93;;;3.00;;
3924;SDS011;1977;52.274;10.518;2023-09-30T09:41:14;4.80;;;3.00;;
3924;SDS011;1977;52.274;10.518;2023-09-30T09:43:41;7.27;;;2.57;;
3924;SDS011;1977;52.274;10.518;2023-09-30T09:46:08;4.50;;;2.40;;
3924;SDS011;1977;52.274;10.518;2023-09-30T09:48:35;4.80;;;2.47;;
3924;SDS011;1977;52.274;10.518;2023-09-30T09:51:03;4.23;;;2.87;;
3924;SDS011;1977;52.274;10.518;2023-09-30T09:53:32;10.90;;;3.53;;
3924;SDS011;1977;52.274;10.518;2023-09-30T09:56:01;6.83;;;3.90;;
3924;SDS011;1977;52.274;10.518;2023-09-30T09:58:31;4.77;;;2.40;;
3924;SDS011;1977;52.274;10.518;2023-09-30T10:01:00;6.47;;;2.20;;
3924;SDS011;1977;52.274;10.518;2023-09-30T10:03:28;7.27;;;2.73;;
3924;SDS011;1977;52.274;10.518;2023-09-30T10:05:55;6.63;;;2.23;;
3924;SDS011;1977;52.274;10.518;2023-09-30T10:08:27;5.03;;;2.23;;
3924;SDS011;1977;52.274;10.518;2023-09-30T10:10:57;6.00;;;3.73;;
3924;SDS011;1977;52.274;10.518;2023-09-30T10:19:16;5.57;;;3.67;;
3924;SDS011;1977;52.274;10.518;2023-09-30T10:24:49;13.70;;;3.43;;
3924;SDS011;1977;52.274;10.518;2023-09-30T10:27:32;7.33;;;2.70;;
3924;SDS011;1977;52.274;10.518;2023-09-30T10:30:06;5.40;;;2.57;;
3924;SDS011;1977;52.274;10.518;2023-09-30T10:35:42;8.27;;;7.57;;
3924;SDS011;1977;52.274;10.518;2023-09-30T10:41:08;8.40;;;7.70;;
3924;SDS011;1977;52.274;10.518;2023-09-30T10:43:38;8.30;;;7.70;;
3924;SDS011;1977;52.274;10.518;2023-09-30T10:52:03;8.17;;;7.57;;
3924;SDS011;1977;52.274;10.518;2023-09-30T10:54:30;8.70;;;8.10;;
3924;SDS011;1977;52.274;10.518;2023-09-30T10:56:59;8.07;;;7.67;;
3924;SDS011;1977;52.274;10.518;2023-09-30T10:59:28;7.80;;;7.40;;
3924;SDS011;1977;52.274;10.518;2023-09-30T11:01:57;8.13;;;7.43;;
3924;SDS011;1977;52.274;10.518;2023-09-30T11:04:24;8.63;;;7.93;;
3924;SDS011;1977;52.274;10.518;2023-09-30T11:06:52;8.57;;;7.73;;
3924;SDS011;1977;52.274;10.518;2023-09-30T11:09:20;9.60;;;8.97;;
3924;SDS011;1977;52.274;10.518;2023-09-30T11:11:47;9.80;;;8.90;;
3924;SDS011;1977;52.274;10.518;2023-09-30T11:14:18;7.73;;;7.17;;
3924;SDS011;1977;52.274;10.518;2023-09-30T11:16:46;7.47;;;7.10;;
3924;SDS011;1977;52.274;10.518;2023-09-30T11:19:15;7.63;;;7.10;;
3924;SDS011;1977;52.274;10.518;2023-09-30T11:21:43;8.20;;;7.70;;
3924;SDS011;1977;52.274;10.518;2023-09-30T11:24:09;7.40;;;7.00;;
3924;SDS011;1977;52.274;10.518;2023-09-30T11:26:36;7.33;;;6.73;;
3924;SDS011;1977;52.274;10.518;2023-09-30T11:29:06;7.70;;;7.30;;
3924;SDS011;1977;52.274;10.518;2023-09-30T11:31:36;8.40;;;7.97;;
3924;SDS011;1977;52.274;10.518;2023-09-30T11:34:03;8.70;;;8.00;;
3924;SDS011;1977;52.274;10.518;2023-09-30T11:36:34;8.23;;;7.63;;
3924;SDS011;1977;52.274;10.518;2023-09-30T11:39:01;8.47;;;7.97;;
3924;SDS011;1977;52.274;10.518;2023-09-30T11:41:35;8.87;;;8.27;;
3924;SDS011;1977;52.274;10.518;2023-09-30T11:44:05;7.93;;;7.50;;
3924;SDS011;1977;52.274;10.518;2023-09-30T11:46:46;8.37;;;7.87;;
3924;SDS011;1977;52.274;10.518;2023-09-30T11:49:25;8.90;;;8.30;;
3924;SDS011;1977;52.274;10.518;2023-09-30T11:51:54;8.83;;;8.13;;
3924;SDS011;1977;52.274;10.518;2023-09-30T11:54:27;8.80;;;8.30;;
3924;SDS011;1977;52.274;10.518;2023-09-30T11:56:59;8.47;;;7.93;;
3924;SDS011;1977;52.274;10.518;2023-09-30T11:59:26;9.20;;;8.70;;
3924;SDS011;1977;52.274;10.518;2023-09-30T12:01:53;9.67;;;9.17;;
3924;SDS011;1977;52.274;10.518;2023-09-30T12:04:20;9.50;;;9.00;;
3924;SDS011;1977;52.274;10.518;2023-09-30T12:06:47;10.37;;;9.77;;
3924;SDS011;1977;52.274;10.518;2023-09-30T12:09:15;9.67;;;9.17;;
3924;SDS011;1977;52.274;10.518;2023-09-30T12:11:47;9.93;;;9.20;;
3924;SDS011;1977;52.274;10.518;2023-09-30T12:14:14;10.40;;;9.47;;
3924;SDS011;1977;52.274;10.518;2023-09-30T12:16:41;10.50;;;10.00;;
3924;SDS011;1977;52.274;10.518;2023-09-30T12:19:10;10.30;;;9.70;;
3924;SDS011;1977;52.274;10.518;2023-09-30T12:21:38;10.33;;;9.77;;
3924;SDS011;1977;52.274;10.518;2023-09-30T12:24:12;9.50;;;9.00;;
3924;SDS011;1977;52.274;10.518;2023-09-30T12:26:42;9.87;;;9.13;;
3924;SDS011;1977;52.274;10.518;2023-09-30T12:29:13;10.13;;;9.63;;
3924;SDS011;1977;52.274;10.518;2023-09-30T12:31:41;10.40;;;9.60;;
3924;SDS011;1977;52.274;10.518;2023-09-30T12:34:08;9.43;;;9.03;;
3924;SDS011;1977;52.274;10.518;2023-09-30T12:36:35;8.77;;;8.30;;
3924;SDS011;1977;52.274;10.518;2023-09-30T12:39:02;10.23;;;9.63;;
3924;SDS011;1977;52.274;10.518;2023-09-30T12:41:35;9.50;;;9.10;;
3924;SDS011;1977;52.274;10.518;2023-09-30T12:44:04;10.17;;;9.47;;
3924;SDS011;1977;52.274;10.518;2023-09-30T12:46:30;9.70;;;8.97;;
3924;SDS011;1977;52.274;10.518;2023-09-30T12:48:59;8.93;;;8.47;;
3924;SDS011;1977;52.274;10.518;2023-09-30T12:51:27;9.27;;;8.77;;
3924;SDS011;1977;52.274;10.518;2023-09-30T12:53:54;9.00;;;8.40;;
3924;SDS011;1977;52.274;10.518;2023-09-30T12:56:21;8.87;;;8.50;;
3924;SDS011;1977;52.274;10.518;2023-09-30T12:58:48;9.50;;;8.83;;
3924;SDS011;1977;52.274;10.518;2023-09-30T13:01:16;7.93;;;7.50;;
3924;SDS011;1977;52.274;10.518;2023-09-30T13:03:43;7.57;;;7.17;;
3924;SDS011;1977;52.274;10.518;2023-09-30T13:06:11;7.23;;;6.90;;
3924;SDS011;1977;52.274;10.518;2023-09-30T13:08:38;7.43;;;6.87;;
3924;SDS011;1977;52.274;10.518;2023-09-30T13:11:05;8.43;;;7.87;;
3924;SDS011;1977;52.274;10.518;2023-09-30T13:13:33;8.30;;;7.80;;
3924;SDS011;1977;52.274;10.518;2023-09-30T13:16:00;8.70;;;8.13;;
3924;SDS011;1977;52.274;10.518;2023-09-30T13:18:29;8.63;;;7.93;;
3924;SDS011;1977;52.274;10.518;2023-09-30T13:20:55;8.00;;;7.30;;
3924;SDS011;1977;52.274;10.518;2023-09-30T13:23:22;7.60;;;7.20;;
3924;SDS011;1977;52.274;10.518;2023-09-30T13:25:49;7.67;;;7.37;;
3924;SDS011;1977;52.274;10.518;2023-09-30T13:28:16;7.80;;;7.50;;
3924;SDS011;1977;52.274;10.518;2023-09-30T13:30:43;8.07;;;7.60;;
3924;SDS011;1977;52.274;10.518;2023-09-30T13:33:10;8.40;;;7.90;;
3924;SDS011;1977;52.274;10.518;2023-09-30T13:35:39;8.07;;;7.67;;
3924;SDS011;1977;52.274;10.518;2023-09-30T13:38:05;8.03;;;7.60;;
3924;SDS011;1977;52.274;10.518;2023-09-30T13:40:33;8.37;;;7.73;;
3924;SDS011;1977;52.274;10.518;2023-09-30T13:43:00;7.63;;;7.33;;
3924;SDS011;1977;52.274;10.518;2023-09-30T13:45:26;8.93;;;8.23;;
3924;SDS011;1977;52.274;10.518;2023-09-30T13:47:53;7.40;;;7.00;;
3924;SDS011;1977;52.274;10.518;2023-09-30T13:50:20;8.43;;;7.80;;
3924;SDS011;1977;52.274;10.518;2023-09-30T13:52:48;7.37;;;7.07;;
3924;SDS011;1977;52.274;10.518;2023-09-30T13:55:15;9.37;;;8.73;;
3924;SDS011;1977;52.274;10.518;2023-09-30T13:57:44;7.80;;;7.30;;
3924;SDS011;1977;52.274;10.518;2023-09-30T14:00:11;8.90;;;8.10;;
3924;SDS011;1977;52.274;10.518;2023-09-30T14:02:39;8.23;;;7.73;;
3924;SDS011;1977;52.274;10.518;2023-09-30T14:05:06;8.17;;;7.60;;
3924;SDS011;1977;52.274;10.518;2023-09-30T14:07:33;7.83;;;7.37;;
3924;SDS011;1977;52.274;10.518;2023-09-30T14:10:01;7.47;;;7.07;;
3924;SDS011;1977;52.274;10.518;2023-09-30T14:12:30;8.00;;;7.50;;
3924;SDS011;1977;52.274;10.518;2023-09-30T14:14:57;8.50;;;7.70;;
3924;SDS011;1977;52.274;10.518;2023-09-30T14:17:24;7.07;;;6.87;;
3924;SDS011;1977;52.274;10.518;2023-09-30T14:19:51;8.30;;;7.70;;
3924;SDS011;1977;52.274;10.518;2023-09-30T14:22:18;9.00;;;8.23;;
3924;SDS011;1977;52.274;10.518;2023-09-30T14:24:45;8.33;;;8.00;;
3924;SDS011;1977;52.274;10.518;2023-09-30T14:27:13;8.07;;;7.77;;
3924;SDS011;1977;52.274;10.518;2023-09-30T14:29:40;9.00;;;8.30;;
3924;SDS011;1977;52.274;10.518;2023-09-30T14:32:08;8.30;;;7.90;;
3924;SDS011;1977;52.274;10.518;2023-09-30T14:34:35;9.70;;;9.10;;
3924;SDS011;1977;52.274;10.518;2023-09-30T14:37:02;9.60;;;9.10;;
3924;SDS011;1977;52.274;10.518;2023-09-30T14:39:29;9.20;;;8.43;;
3924;SDS011;1977;52.274;10.518;2023-09-30T14:41:56;8.80;;;8.27;;
3924;SDS011;1977;52.274;10.518;2023-09-30T14:44:24;8.57;;;8.10;;
3924;SDS011;1977;52.274;10.518;2023-09-30T14:46:51;8.23;;;7.73;;
3924;SDS011;1977;52.274;10.518;2023-09-30T14:49:18;8.10;;;7.80;;
3924;SDS011;1977;52.274;10.518;2023-09-30T14:51:44;8.70;;;8.20;;
3924;SDS011;1977;52.274;10.518;2023-09-30T14:54:13;8.03;;;7.63;;
3924;SDS011;1977;52.274;10.518;2023-09-30T14:56:40;8.23;;;7.77;;
3924;SDS011;1977;52.274;10.518;2023-09-30T14:59:06;8.30;;;7.90;;
3924;SDS011;1977;52.274;10.518;2023-09-30T15:01:34;12.87;;;10.27;;
3924;SDS011;1977;52.274;10.518;2023-09-30T15:04:01;10.27;;;9.57;;
3924;SDS011;1977;52.274;10.518;2023-09-30T15:06:28;8.73;;;8.13;;
3924;SDS011;1977;52.274;10.518;2023-09-30T15:08:55;9.20;;;8.60;;
3924;SDS011;1977;52.274;10.518;2023-09-30T15:11:21;9.13;;;8.33;;
3924;SDS011;1977;52.274;10.518;2023-09-30T15:13:48;8.77;;;8.27;;
3924;SDS011;1977;52.274;10.518;2023-09-30T15:16:16;8.53;;;8.23;;
3924;SDS011;1977;52.274;10.518;2023-09-30T15:18:45;8.57;;;8.17;;
3924;SDS011;1977;52.274;10.518;2023-09-30T15:21:13;8.20;;;7.80;;
3924;SDS011;1977;52.274;10.518;2023-09-30T15:23:40;8.50;;;7.97;;
3924;SDS011;1977;52.274;10.518;2023-09-30T15:26:07;8.20;;;7.80;;